tititudorancea.com
Station Historical Data
Daily Summary for Nil La, TWC- Units:  Both    English   Metric
« Previous Day
Next Day »
Daily Weekly Monthly Yearly Custom
  High: Low: Average:
Temperature: TemperatureF °F /  -17.8 °C 36.7 °F /  2.6 °C 45.9 °F /  7.7 °C
Dew Point: DewpointF °F /  -17.8 °C 34.9 °F /  1.6 °C 41.1 °F /  5.1 °C
Humidity: Humidity % 49 % 84 %
Wind Speed: WindSpeedMPH mph /  0 km/h - 1.3 mph /  2.1 km/h
Wind Gust: WindSpeedGustMPH mph /  0 km/h - -
Wind:- - SSW
Pressure: PressureIn in /  0 hPa 30.04 in /  1017.2 hPa -
Precipitation: 0 in /  0 mm    
Historical Graphs
 
 
Ararat weather Find more about Weather in Ararat, AU


 



 


Tabular Data for Nil La, TWC-
Time Temperature Dew Point Pressure Wind Wind Speed Wind Gust Humidity Rainfall Rate (Hourly)
TemperatureF °F /  -17.8 °C DewpointF °F /  -17.8 °C PressureIn in /  0 hPa Calm     Humidity % HourlyPrecipIn in /  0 mm
00:04 44.7 °F /  7.1 °C 41.9 °F /  5.5 °C 30.12 in /  1019.9 hPa Calm     90 % 0 in /  0 mm
00:09 44.9 °F /  7.2 °C 42.1 °F /  5.6 °C 30.12 in /  1019.9 hPa Calm     90 % 0 in /  0 mm
00:14 45 °F /  7.2 °C 42.2 °F /  5.7 °C 30.12 in /  1019.9 hPa Calm     90 % 0 in /  0 mm
00:19 45.1 °F /  7.3 °C 42.3 °F /  5.7 °C 30.12 in /  1019.9 hPa Calm     90 % 0 in /  0 mm
00:24 45.3 °F /  7.4 °C 42.5 °F /  5.8 °C 30.12 in /  1019.9 hPa Calm     90 % 0 in /  0 mm
00:29 45.4 °F /  7.4 °C 42.6 °F /  5.9 °C 30.12 in /  1019.9 hPa Calm     90 % 0 in /  0 mm
00:34 45.5 °F /  7.5 °C 42.7 °F /  5.9 °C 30.12 in /  1019.9 hPa Calm     90 % 0 in /  0 mm
00:39 45.6 °F /  7.6 °C 42.8 °F /  6 °C 30.12 in /  1019.9 hPa Calm     90 % 0 in /  0 mm
00:44 45.7 °F /  7.6 °C 42.9 °F /  6.1 °C 30.12 in /  1019.9 hPa Calm     90 % 0 in /  0 mm
00:49 45.9 °F /  7.7 °C 43.1 °F /  6.2 °C 30.12 in /  1019.9 hPa Calm     90 % 0 in /  0 mm
00:54 45.9 °F /  7.7 °C 43.1 °F /  6.2 °C 30.12 in /  1019.9 hPa Calm     90 % 0 in /  0 mm
00:59 45.9 °F /  7.7 °C 43.1 °F /  6.2 °C 30.12 in /  1019.9 hPa Calm     90 % 0 in /  0 mm
01:04 45.9 °F /  7.7 °C 43.1 °F /  6.2 °C 30.11 in /  1019.5 hPa Calm     90 % 0 in /  0 mm
01:09 45.8 °F /  7.7 °C 43 °F /  6.1 °C 30.11 in /  1019.5 hPa Calm     90 % 0 in /  0 mm
01:14 45.7 °F /  7.6 °C 42.6 °F /  5.9 °C 30.11 in /  1019.5 hPa Calm     89 % 0 in /  0 mm
01:19 45.4 °F /  7.4 °C 42.3 °F /  5.7 °C 30.11 in /  1019.5 hPa Calm     89 % 0 in /  0 mm
01:24 45.2 °F /  7.3 °C 42.2 °F /  5.7 °C 30.11 in /  1019.5 hPa Calm     89 % 0 in /  0 mm
01:29 45 °F /  7.2 °C 42 °F /  5.6 °C 30.11 in /  1019.5 hPa Calm     89 % 0 in /  0 mm
01:34 44.8 °F /  7.1 °C 41.8 °F /  5.4 °C 30.11 in /  1019.5 hPa Calm     89 % 0 in /  0 mm
01:39 44.6 °F /  7 °C 41.8 °F /  5.4 °C 30.11 in /  1019.5 hPa Calm     90 % 0 in /  0 mm
01:44 44.3 °F /  6.8 °C 41.6 °F /  5.3 °C 30.11 in /  1019.5 hPa Calm     90 % 0 in /  0 mm
01:49 44.1 °F /  6.7 °C 41.4 °F /  5.2 °C 30.10 in /  1019.2 hPa Calm     90 % 0 in /  0 mm
01:54 44.1 °F /  6.7 °C 41.4 °F /  5.2 °C 30.10 in /  1019.2 hPa Calm     90 % 0 in /  0 mm
01:59 44.2 °F /  6.8 °C 41.7 °F /  5.4 °C 30.10 in /  1019.2 hPa Calm     91 % 0 in /  0 mm
02:04 44.2 °F /  6.8 °C 41.7 °F /  5.4 °C 30.10 in /  1019.2 hPa Calm     91 % 0 in /  0 mm
02:05 45.9 °F /  7.7 °C 43.1 °F /  6.2 °C 30.11 in /  1019.5 hPa Calm   7 mph /  11.3 km/h 90 % 0 in /  0 mm
02:09 44.2 °F /  6.8 °C 41.7 °F /  5.4 °C 30.10 in /  1019.2 hPa Calm     91 % 0 in /  0 mm
02:10 45.9 °F /  7.7 °C 43.1 °F /  6.2 °C 30.11 in /  1019.5 hPa Calm     90 % 0 in /  0 mm
02:14 44.1 °F /  6.7 °C 41.6 °F /  5.3 °C 30.10 in /  1019.2 hPa Calm     91 % 0 in /  0 mm
02:15 45.8 °F /  7.7 °C 43 °F /  6.1 °C 30.11 in /  1019.5 hPa Calm     90 % 0 in /  0 mm
02:19 44 °F /  6.7 °C 41.5 °F /  5.3 °C 30.10 in /  1019.2 hPa Calm     91 % 0 in /  0 mm
02:20 45.6 °F /  7.6 °C 42.5 °F /  5.8 °C 30.11 in /  1019.5 hPa Calm     89 % 0 in /  0 mm
02:24 43.8 °F /  6.6 °C 41.3 °F /  5.2 °C 30.10 in /  1019.2 hPa Calm     91 % 0 in /  0 mm
02:25 45.4 °F /  7.4 °C 42.3 °F /  5.7 °C 30.11 in /  1019.5 hPa Calm     89 % 0 in /  0 mm
02:29 43.7 °F /  6.5 °C 41.2 °F /  5.1 °C 30.10 in /  1019.2 hPa Calm     91 % 0 in /  0 mm
02:30 45.1 °F /  7.3 °C 42.3 °F /  5.7 °C 30.11 in /  1019.5 hPa Calm     90 % 0 in /  0 mm
02:34 43.7 °F /  6.5 °C 41.2 °F /  5.1 °C 30.10 in /  1019.2 hPa Calm     91 % 0 in /  0 mm
02:35 44.9 °F /  7.2 °C 41.9 °F /  5.5 °C 30.11 in /  1019.5 hPa Calm     89 % 0 in /  0 mm
02:39 43.6 °F /  6.4 °C 41.1 °F /  5.1 °C 30.09 in /  1018.8 hPa Calm     91 % 0 in /  0 mm
02:40 44.7 °F /  7.1 °C 41.9 °F /  5.5 °C 30.11 in /  1019.5 hPa Calm     90 % 0 in /  0 mm
02:44 43.5 °F /  6.4 °C 41 °F /  5 °C 30.09 in /  1018.8 hPa Calm     91 % 0 in /  0 mm
02:45 44.5 °F /  6.9 °C 41.5 °F /  5.3 °C 30.11 in /  1019.5 hPa Calm     89 % 0 in /  0 mm
02:49 43.4 °F /  6.3 °C 40.9 °F /  4.9 °C 30.09 in /  1018.8 hPa Calm     91 % 0 in /  0 mm
02:50 44.2 °F /  6.8 °C 41.5 °F /  5.3 °C 30.11 in /  1019.5 hPa Calm     90 % 0 in /  0 mm
02:54 43.2 °F /  6.2 °C 40.8 °F /  4.9 °C 30.09 in /  1018.8 hPa Calm     91 % 0 in /  0 mm
02:55 44.1 °F /  6.7 °C 41.4 °F /  5.2 °C 30.10 in /  1019.2 hPa Calm     90 % 0 in /  0 mm
02:59 43 °F /  6.1 °C 40.6 °F /  4.8 °C 30.09 in /  1018.8 hPa Calm     91 % 0 in /  0 mm
03:00 44.2 °F /  6.8 °C 41.7 °F /  5.4 °C 30.10 in /  1019.2 hPa Calm     91 % 0 in /  0 mm
03:04 42.8 °F /  6 °C 40.4 °F /  4.7 °C 30.09 in /  1018.8 hPa Calm     91 % 0 in /  0 mm
03:05 44.2 °F /  6.8 °C 41.7 °F /  5.4 °C 30.10 in /  1019.2 hPa Calm     91 % 0 in /  0 mm
03:09 42.8 °F /  6 °C 40.6 °F /  4.8 °C 30.09 in /  1018.8 hPa Calm     92 % 0 in /  0 mm
03:10 44.2 °F /  6.8 °C 41.7 °F /  5.4 °C 30.10 in /  1019.2 hPa Calm     91 % 0 in /  0 mm
03:14 42.8 °F /  6 °C 40.6 °F /  4.8 °C 30.09 in /  1018.8 hPa Calm     92 % 0 in /  0 mm
03:15 44.2 °F /  6.8 °C 41.7 °F /  5.4 °C 30.10 in /  1019.2 hPa Calm     91 % 0 in /  0 mm
03:19 42.6 °F /  5.9 °C 40.2 °F /  4.6 °C 30.09 in /  1018.8 hPa Calm     91 % 0 in /  0 mm
03:20 44.1 °F /  6.7 °C 41.6 °F /  5.3 °C 30.10 in /  1019.2 hPa Calm     91 % 0 in /  0 mm
03:24 42.3 °F /  5.7 °C 39.9 °F /  4.4 °C 30.09 in /  1018.8 hPa Calm     91 % 0 in /  0 mm
03:25 44 °F /  6.7 °C 41.5 °F /  5.3 °C 30.10 in /  1019.2 hPa Calm     91 % 0 in /  0 mm
03:29 42.1 °F /  5.6 °C 39.7 °F /  4.3 °C 30.09 in /  1018.8 hPa Calm     91 % 0 in /  0 mm
03:30 43.7 °F /  6.5 °C 41.2 °F /  5.1 °C 30.10 in /  1019.2 hPa Calm     91 % 0 in /  0 mm
03:34 41.9 °F /  5.5 °C 39.5 °F /  4.2 °C 30.09 in /  1018.8 hPa Calm     91 % 0 in /  0 mm
03:35 43.7 °F /  6.5 °C 41.2 °F /  5.1 °C 30.10 in /  1019.2 hPa Calm     91 % 0 in /  0 mm
03:39 41.6 °F /  5.3 °C 39.2 °F /  4 °C 30.09 in /  1018.8 hPa Calm     91 % 0 in /  0 mm
03:40 43.6 °F /  6.4 °C 41.1 °F /  5.1 °C 30.10 in /  1019.2 hPa Calm     91 % 0 in /  0 mm
03:44 41.4 °F /  5.2 °C 39 °F /  3.9 °C 30.09 in /  1018.8 hPa Calm     91 % 0 in /  0 mm
03:45 43.6 °F /  6.4 °C 41.1 °F /  5.1 °C 30.09 in /  1018.8 hPa Calm     91 % 0 in /  0 mm
03:49 41.1 °F /  5.1 °C 38.7 °F /  3.7 °C 30.09 in /  1018.8 hPa Calm     91 % 0 in /  0 mm
03:50 43.5 °F /  6.4 °C 41 °F /  5 °C 30.09 in /  1018.8 hPa Calm     91 % 0 in /  0 mm
03:54 40.9 °F /  4.9 °C 40.1 °F /  4.5 °C 30.09 in /  1018.8 hPa Calm     97 % 0 in /  0 mm
03:55 43.3 °F /  6.3 °C 40.8 °F /  4.9 °C 30.09 in /  1018.8 hPa Calm     91 % 0 in /  0 mm
03:59 40.6 °F /  4.8 °C 38.5 °F /  3.6 °C 30.09 in /  1018.8 hPa Calm     92 % 0 in /  0 mm
04:00 43.1 °F /  6.2 °C 40.7 °F /  4.8 °C 30.09 in /  1018.8 hPa Calm     91 % 0 in /  0 mm
04:04 40.5 °F /  4.7 °C 38.4 °F /  3.6 °C 30.09 in /  1018.8 hPa Calm     92 % 0 in /  0 mm
04:05 42.9 °F /  6.1 °C 40.5 °F /  4.7 °C 30.09 in /  1018.8 hPa Calm     91 % 0 in /  0 mm
04:09 40.4 °F /  4.7 °C 38.3 °F /  3.5 °C 30.09 in /  1018.8 hPa Calm     92 % 0 in /  0 mm
04:10 42.8 °F /  6 °C 40.4 °F /  4.7 °C 30.09 in /  1018.8 hPa Calm     91 % 0 in /  0 mm
04:14 40.2 °F /  4.6 °C 38.1 °F /  3.4 °C 30.09 in /  1018.8 hPa Calm     92 % 0 in /  0 mm
04:15 42.8 °F /  6 °C 40.6 °F /  4.8 °C 30.09 in /  1018.8 hPa Calm     92 % 0 in /  0 mm
04:19 40 °F /  4.4 °C 37.9 °F /  3.3 °C 30.09 in /  1018.8 hPa Calm     92 % 0 in /  0 mm
04:20 42.8 °F /  6 °C 40.4 °F /  4.7 °C 30.09 in /  1018.8 hPa Calm     91 % 0 in /  0 mm
04:24 39.8 °F /  4.3 °C 37.7 °F /  3.2 °C 30.09 in /  1018.8 hPa Calm     92 % 0 in /  0 mm
04:25 42.5 °F /  5.8 °C 40.1 °F /  4.5 °C 30.09 in /  1018.8 hPa Calm     91 % 0 in /  0 mm
04:29 39.8 °F /  4.3 °C 37.7 °F /  3.2 °C 30.09 in /  1018.8 hPa Calm     92 % 0 in /  0 mm
04:30 42.3 °F /  5.7 °C 39.9 °F /  4.4 °C 30.09 in /  1018.8 hPa Calm     91 % 0 in /  0 mm
04:34 39.7 °F /  4.3 °C 37.6 °F /  3.1 °C 30.09 in /  1018.8 hPa Calm     92 % 0 in /  0 mm
04:35 42 °F /  5.6 °C 39.6 °F /  4.2 °C 30.09 in /  1018.8 hPa Calm     91 % 0 in /  0 mm
04:39 39.5 °F /  4.2 °C 37.4 °F /  3 °C 30.09 in /  1018.8 hPa Calm     92 % 0 in /  0 mm
04:40 41.7 °F /  5.4 °C 39.3 °F /  4.1 °C 30.09 in /  1018.8 hPa Calm     91 % 0 in /  0 mm
04:44 39.5 °F /  4.2 °C 37.4 °F /  3 °C 30.09 in /  1018.8 hPa SSW 2.3 mph /  3.7 km/h 0.6 mph /  1 km/h 92 % 0 in /  0 mm
04:45 41.5 °F /  5.3 °C 39.1 °F /  3.9 °C 30.09 in /  1018.8 hPa Calm     91 % 0 in /  0 mm
04:49 39.4 °F /  4.1 °C 37.3 °F /  2.9 °C 30.09 in /  1018.8 hPa Calm     92 % 0 in /  0 mm
04:50 41.3 °F /  5.2 °C 38.9 °F /  3.8 °C 30.09 in /  1018.8 hPa Calm     91 % 0 in /  0 mm
04:54 39.2 °F /  4 °C 37.1 °F /  2.8 °C 30.09 in /  1018.8 hPa Calm     92 % 0 in /  0 mm
04:55 41 °F /  5 °C 38.6 °F /  3.7 °C 30.09 in /  1018.8 hPa Calm     91 % 0 in /  0 mm
04:59 38.9 °F /  3.8 °C 36.8 °F /  2.7 °C 30.09 in /  1018.8 hPa Calm     92 % 0 in /  0 mm
05:00 40.8 °F /  4.9 °C 38.4 °F /  3.6 °C 30.09 in /  1018.8 hPa Calm     91 % 0 in /  0 mm
05:04 38.7 °F /  3.7 °C 36.6 °F /  2.6 °C 30.09 in /  1018.8 hPa Calm     92 % 0 in /  0 mm
05:05 40.6 °F /  4.8 °C 38.5 °F /  3.6 °C 30.09 in /  1018.8 hPa Calm     92 % 0 in /  0 mm
05:09 38.7 °F /  3.7 °C 36.6 °F /  2.6 °C 30.09 in /  1018.8 hPa Calm     92 % 0 in /  0 mm
05:10 40.5 °F /  4.7 °C 38.4 °F /  3.6 °C 30.09 in /  1018.8 hPa Calm     92 % 0 in /  0 mm
05:14 38.6 °F /  3.7 °C 36.5 °F /  2.5 °C 30.09 in /  1018.8 hPa Calm     92 % 0 in /  0 mm
05:15 40.3 °F /  4.6 °C 38.2 °F /  3.4 °C 30.09 in /  1018.8 hPa Calm     92 % 0 in /  0 mm
05:19 38.6 °F /  3.7 °C 36.8 °F /  2.7 °C 30.09 in /  1018.8 hPa Calm     93 % 0 in /  0 mm
05:20 40.2 °F /  4.6 °C 38.1 °F /  3.4 °C 30.09 in /  1018.8 hPa Calm     92 % 0 in /  0 mm
05:24 38.6 °F /  3.7 °C 36.8 °F /  2.7 °C 30.09 in /  1018.8 hPa Calm     93 % 0 in /  0 mm
05:25 39.9 °F /  4.4 °C 37.8 °F /  3.2 °C 30.09 in /  1018.8 hPa Calm     92 % 0 in /  0 mm
05:29 38.5 °F /  3.6 °C 36.4 °F /  2.4 °C 30.09 in /  1018.8 hPa Calm     92 % 0 in /  0 mm
05:30 39.8 °F /  4.3 °C 37.7 °F /  3.2 °C 30.09 in /  1018.8 hPa Calm     92 % 0 in /  0 mm
05:34 38.2 °F /  3.4 °C 36.1 °F /  2.3 °C 30.09 in /  1018.8 hPa Calm     92 % 0 in /  0 mm
05:35 39.7 °F /  4.3 °C 37.6 °F /  3.1 °C 30.09 in /  1018.8 hPa Calm     92 % 0 in /  0 mm
05:39 38 °F /  3.3 °C 35.9 °F /  2.2 °C 30.09 in /  1018.8 hPa Calm     92 % 0 in /  0 mm
05:40 39.6 °F /  4.2 °C 37.5 °F /  3.1 °C 30.09 in /  1018.8 hPa Calm     92 % 0 in /  0 mm
05:44 37.8 °F /  3.2 °C 35.7 °F /  2.1 °C 30.09 in /  1018.8 hPa Calm     92 % 0 in /  0 mm
05:45 39.5 °F /  4.2 °C 37.4 °F /  3 °C 30.09 in /  1018.8 hPa Calm     92 % 0 in /  0 mm
05:49 37.7 °F /  3.2 °C 35.6 °F /  2 °C 30.10 in /  1019.2 hPa Calm     92 % 0 in /  0 mm
05:50 39.5 °F /  4.2 °C 37.4 °F /  3 °C 30.09 in /  1018.8 hPa Calm   2 mph /  3.2 km/h 92 % 0 in /  0 mm
05:54 37.5 °F /  3.1 °C 35.4 °F /  1.9 °C 30.10 in /  1019.2 hPa Calm     92 % 0 in /  0 mm
05:55 39.4 °F /  4.1 °C 37.3 °F /  2.9 °C 30.09 in /  1018.8 hPa Calm     92 % 0 in /  0 mm
05:59 37.3 °F /  2.9 °C 35.5 °F /  1.9 °C 30.10 in /  1019.2 hPa Calm     93 % 0 in /  0 mm
06:00 39.1 °F /  3.9 °C 37 °F /  2.8 °C 30.09 in /  1018.8 hPa Calm     92 % 0 in /  0 mm
06:04 37.2 °F /  2.9 °C 35.4 °F /  1.9 °C 30.10 in /  1019.2 hPa Calm     93 % 0 in /  0 mm
06:05 38.8 °F /  3.8 °C 36.7 °F /  2.6 °C 30.09 in /  1018.8 hPa Calm     92 % 0 in /  0 mm
06:09 37.1 °F /  2.8 °C 35.3 °F /  1.8 °C 30.09 in /  1018.8 hPa Calm     93 % 0 in /  0 mm
06:10 38.7 °F /  3.7 °C 36.6 °F /  2.6 °C 30.09 in /  1018.8 hPa Calm     92 % 0 in /  0 mm
06:14 37.2 °F /  2.9 °C 35.4 °F /  1.9 °C 30.09 in /  1018.8 hPa Calm     93 % 0 in /  0 mm
06:15 38.6 °F /  3.7 °C 36.5 °F /  2.5 °C 30.09 in /  1018.8 hPa Calm     92 % 0 in /  0 mm
06:19 37.2 °F /  2.9 °C 35.4 °F /  1.9 °C 30.09 in /  1018.8 hPa Calm     93 % 0 in /  0 mm
06:20 38.6 °F /  3.7 °C 36.5 °F /  2.5 °C 30.09 in /  1018.8 hPa Calm     92 % 0 in /  0 mm
06:24 37 °F /  2.8 °C 35.2 °F /  1.8 °C 30.09 in /  1018.8 hPa Calm     93 % 0 in /  0 mm
06:25 38.6 °F /  3.7 °C 36.8 °F /  2.7 °C 30.09 in /  1018.8 hPa Calm     93 % 0 in /  0 mm
06:29 36.9 °F /  2.7 °C 35.1 °F /  1.7 °C 30.09 in /  1018.8 hPa Calm     93 % 0 in /  0 mm
06:30 38.6 °F /  3.7 °C 36.8 °F /  2.7 °C 30.09 in /  1018.8 hPa Calm     93 % 0 in /  0 mm
06:34 36.9 °F /  2.7 °C 35.1 °F /  1.7 °C 30.09 in /  1018.8 hPa Calm     93 % 0 in /  0 mm
06:35 38.4 °F /  3.6 °C 36.3 °F /  2.4 °C 30.09 in /  1018.8 hPa Calm     92 % 0 in /  0 mm
06:39 36.9 °F /  2.7 °C 35.1 °F /  1.7 °C 30.09 in /  1018.8 hPa Calm     93 % 0 in /  0 mm
06:40 38.1 °F /  3.4 °C 36 °F /  2.2 °C 30.09 in /  1018.8 hPa Calm     92 % 0 in /  0 mm
06:44 36.9 °F /  2.7 °C 35.1 °F /  1.7 °C 30.09 in /  1018.8 hPa Calm     93 % 0 in /  0 mm
06:45 37.9 °F /  3.3 °C 36.1 °F /  2.3 °C 30.09 in /  1018.8 hPa Calm     93 % 0 in /  0 mm
06:49 36.9 °F /  2.7 °C 35.1 °F /  1.7 °C 30.09 in /  1018.8 hPa Calm     93 % 0 in /  0 mm
06:50 37.8 °F /  3.2 °C 35.7 °F /  2.1 °C 30.09 in /  1018.8 hPa Calm     92 % 0 in /  0 mm
06:54 36.7 °F /  2.6 °C 34.9 °F /  1.6 °C 30.10 in /  1019.2 hPa Calm     93 % 0 in /  0 mm
06:55 37.6 °F /  3.1 °C 35.5 °F /  1.9 °C 30.10 in /  1019.2 hPa Calm     92 % 0 in /  0 mm
06:59 36.8 °F /  2.7 °C 35 °F /  1.7 °C 30.10 in /  1019.2 hPa Calm     93 % 0 in /  0 mm
07:00 37.4 °F /  3 °C 35.3 °F /  1.8 °C 30.10 in /  1019.2 hPa Calm     92 % 0 in /  0 mm
07:04 36.8 °F /  2.7 °C 35 °F /  1.7 °C 30.11 in /  1019.5 hPa Calm     93 % 0 in /  0 mm
07:05 37.3 °F /  2.9 °C 35.5 °F /  1.9 °C 30.10 in /  1019.2 hPa Calm     93 % 0 in /  0 mm
07:09 37 °F /  2.8 °C 35.4 °F /  1.9 °C 30.11 in /  1019.5 hPa SSW 1.2 mph /  1.9 km/h   94 % 0 in /  0 mm
07:10 37.1 °F /  2.8 °C 35.3 °F /  1.8 °C 30.09 in /  1018.8 hPa Calm     93 % 0 in /  0 mm
07:14 37.2 °F /  2.9 °C 35.6 °F /  2 °C 30.10 in /  1019.2 hPa SSW 1.2 mph /  1.9 km/h   94 % 0 in /  0 mm
07:15 37.2 °F /  2.9 °C 35.4 °F /  1.9 °C 30.09 in /  1018.8 hPa Calm     93 % 0 in /  0 mm
07:19 37.6 °F /  3.1 °C 36 °F /  2.2 °C 30.11 in /  1019.5 hPa Calm   0.1 mph /  0.2 km/h 94 % 0 in /  0 mm
07:20 37.2 °F /  2.9 °C 35.4 °F /  1.9 °C 30.10 in /  1019.2 hPa Calm     93 % 0 in /  0 mm
07:24 38 °F /  3.3 °C 36.4 °F /  2.4 °C 30.11 in /  1019.5 hPa Calm     94 % 0 in /  0 mm
07:25 37.1 °F /  2.8 °C 35.3 °F /  1.8 °C 30.09 in /  1018.8 hPa Calm     93 % 0 in /  0 mm
07:29 38.4 °F /  3.6 °C 36.8 °F /  2.7 °C 30.11 in /  1019.5 hPa Calm     94 % 0 in /  0 mm
07:30 37 °F /  2.8 °C 35.2 °F /  1.8 °C 30.09 in /  1018.8 hPa Calm     93 % 0 in /  0 mm
07:34 38.8 °F /  3.8 °C 37.2 °F /  2.9 °C 30.11 in /  1019.5 hPa Calm     94 % 0 in /  0 mm
07:35 36.9 °F /  2.7 °C 35.1 °F /  1.7 °C 30.09 in /  1018.8 hPa Calm     93 % 0 in /  0 mm
07:39 39.3 °F /  4.1 °C 38 °F /  3.3 °C 30.11 in /  1019.5 hPa Calm     95 % 0 in /  0 mm
07:40 36.9 °F /  2.7 °C 35.1 °F /  1.7 °C 30.09 in /  1018.8 hPa Calm     93 % 0 in /  0 mm
07:44 39.9 °F /  4.4 °C 38.6 °F /  3.7 °C 30.11 in /  1019.5 hPa Calm     95 % 0 in /  0 mm
07:45 36.9 °F /  2.7 °C 35.1 °F /  1.7 °C 30.09 in /  1018.8 hPa Calm     93 % 0 in /  0 mm
07:49 41.2 °F /  5.1 °C 40.1 °F /  4.5 °C 30.11 in /  1019.5 hPa Calm     96 % 0 in /  0 mm
07:50 36.9 °F /  2.7 °C 35.1 °F /  1.7 °C 30.09 in /  1018.8 hPa Calm     93 % 0 in /  0 mm
07:54 43 °F /  6.1 °C 41.9 °F /  5.5 °C 30.11 in /  1019.5 hPa Calm     96 % 0 in /  0 mm
07:55 36.8 °F /  2.7 °C 35 °F /  1.7 °C 30.10 in /  1019.2 hPa Calm     93 % 0 in /  0 mm
07:59 44.3 °F /  6.8 °C 43.2 °F /  6.2 °C 30.11 in /  1019.5 hPa Calm     96 % 0 in /  0 mm
08:00 36.8 °F /  2.7 °C 35 °F /  1.7 °C 30.10 in /  1019.2 hPa Calm     93 % 0 in /  0 mm
08:04 45.1 °F /  7.3 °C 44 °F /  6.7 °C 30.11 in /  1019.5 hPa Calm     96 % 0 in /  0 mm
08:05 36.8 °F /  2.7 °C 35 °F /  1.7 °C 30.10 in /  1019.2 hPa Calm     93 % 0 in /  0 mm
08:09 45.9 °F /  7.7 °C 44.8 °F /  7.1 °C 30.11 in /  1019.5 hPa Calm     96 % 0 in /  0 mm
08:10 36.9 °F /  2.7 °C 35.1 °F /  1.7 °C 30.10 in /  1019.2 hPa Calm     93 % 0 in /  0 mm
08:14 46.5 °F /  8.1 °C 45.1 °F /  7.3 °C 30.11 in /  1019.5 hPa SSW 2.3 mph /  3.7 km/h   95 % 0 in /  0 mm
08:15 37.1 °F /  2.8 °C 35.5 °F /  1.9 °C 30.11 in /  1019.5 hPa Calm   1 mph /  1.6 km/h 94 % 0 in /  0 mm
08:19 46.6 °F /  8.1 °C 45 °F /  7.2 °C 30.11 in /  1019.5 hPa SSW 3.5 mph /  5.6 km/h 2 mph /  3.2 km/h 94 % 0 in /  0 mm
08:20 37.3 °F /  2.9 °C 35.7 °F /  2.1 °C 30.11 in /  1019.5 hPa Calm   1 mph /  1.6 km/h 94 % 0 in /  0 mm
08:24 47 °F /  8.3 °C 45.4 °F /  7.4 °C 30.12 in /  1019.9 hPa SSW 1.2 mph /  1.9 km/h   94 % 0 in /  0 mm
08:25 37.7 °F /  3.2 °C 36.1 °F /  2.3 °C 30.11 in /  1019.5 hPa Calm   2 mph /  3.2 km/h 94 % 0 in /  0 mm
08:29 47.7 °F /  8.7 °C 46.1 °F /  7.8 °C 30.12 in /  1019.9 hPa SSW 3.5 mph /  5.6 km/h 1.6 mph /  2.6 km/h 94 % 0 in /  0 mm
08:30 38.2 °F /  3.4 °C 36.6 °F /  2.6 °C 30.11 in /  1019.5 hPa Calm     94 % 0 in /  0 mm
08:34 48.3 °F /  9.1 °C 46.7 °F /  8.2 °C 30.12 in /  1019.9 hPa SSW 2 mph /  3.2 km/h 1.5 mph /  2.4 km/h 94 % 0 in /  0 mm
08:35 38.5 °F /  3.6 °C 36.9 °F /  2.7 °C 30.11 in /  1019.5 hPa Calm     94 % 0 in /  0 mm
08:39 49.1 °F /  9.5 °C 47.2 °F /  8.4 °C 30.12 in /  1019.9 hPa Calm     93 % 0 in /  0 mm
08:40 39 °F /  3.9 °C 37.7 °F /  3.2 °C 30.11 in /  1019.5 hPa Calm     95 % 0 in /  0 mm
08:44 49.1 °F /  9.5 °C 46.9 °F /  8.3 °C 30.12 in /  1019.9 hPa Calm     92 % 0 in /  0 mm
08:45 39.5 °F /  4.2 °C 38.2 °F /  3.4 °C 30.11 in /  1019.5 hPa Calm     95 % 0 in /  0 mm
08:49 49.6 °F /  9.8 °C 47.1 °F /  8.4 °C 30.12 in /  1019.9 hPa Calm   0.2 mph /  0.3 km/h 91 % 0 in /  0 mm
08:50 40.3 °F /  4.6 °C 39 °F /  3.9 °C 30.11 in /  1019.5 hPa Calm     95 % 0 in /  0 mm
08:54 50.6 °F /  10.3 °C 48.1 °F /  8.9 °C 30.13 in /  1020.2 hPa SSW 2.3 mph /  3.7 km/h 1.5 mph /  2.4 km/h 91 % 0 in /  0 mm
08:55 41.9 °F /  5.5 °C 40.8 °F /  4.9 °C 30.11 in /  1019.5 hPa Calm     96 % 0 in /  0 mm
08:59 51.3 °F /  10.7 °C 47.9 °F /  8.8 °C 30.13 in /  1020.2 hPa SSW 1.2 mph /  1.9 km/h 0.2 mph /  0.3 km/h 88 % 0 in /  0 mm
09:00 43.5 °F /  6.4 °C 42.4 °F /  5.8 °C 30.11 in /  1019.5 hPa Calm     96 % 0 in /  0 mm
09:04 52.1 °F /  11.2 °C 48.7 °F /  9.3 °C 30.13 in /  1020.2 hPa SSW 3.5 mph /  5.6 km/h 1 mph /  1.6 km/h 88 % 0 in /  0 mm
09:05 44.6 °F /  7 °C 43.5 °F /  6.4 °C 30.11 in /  1019.5 hPa Calm     96 % 0 in /  0 mm
09:09 52.5 °F /  11.4 °C 48.1 °F /  8.9 °C 30.13 in /  1020.2 hPa SSW 2.3 mph /  3.7 km/h 0.9 mph /  1.4 km/h 85 % 0 in /  0 mm
09:10 45.4 °F /  7.4 °C 44.3 °F /  6.8 °C 30.11 in /  1019.5 hPa Calm     96 % 0 in /  0 mm
09:14 53.1 °F /  11.7 °C 48.1 °F /  8.9 °C 30.13 in /  1020.2 hPa SSW 2.3 mph /  3.7 km/h 1.3 mph /  2.1 km/h 83 % 0 in /  0 mm
09:15 46.3 °F /  7.9 °C 44.9 °F /  7.2 °C 30.11 in /  1019.5 hPa Calm     95 % 0 in /  0 mm
09:19 53.7 °F /  12.1 °C 48 °F /  8.9 °C 30.13 in /  1020.2 hPa SSW 2.3 mph /  3.7 km/h 0.6 mph /  1 km/h 81 % 0 in /  0 mm
09:20 46.6 °F /  8.1 °C 45 °F /  7.2 °C 30.11 in /  1019.5 hPa Calm   2 mph /  3.2 km/h 94 % 0 in /  0 mm
09:24 54.3 °F /  12.4 °C 47.6 °F /  8.7 °C 30.13 in /  1020.2 hPa SSW 3.5 mph /  5.6 km/h 2.2 mph /  3.5 km/h 78 % 0 in /  0 mm
09:25 46.7 °F /  8.2 °C 45.1 °F /  7.3 °C 30.11 in /  1019.5 hPa SSW 1 mph /  1.6 km/h 3 mph /  4.8 km/h 94 % 0 in /  0 mm
09:29 54.5 °F /  12.5 °C 47.4 °F /  8.6 °C 30.13 in /  1020.2 hPa SSW 2 mph /  3.2 km/h 0.7 mph /  1.1 km/h 77 % 0 in /  0 mm
09:30 47.2 °F /  8.4 °C 45.6 °F /  7.6 °C 30.12 in /  1019.9 hPa SSW 1 mph /  1.6 km/h 2 mph /  3.2 km/h 94 % 0 in /  0 mm
09:34 55.1 °F /  12.8 °C 48.4 °F /  9.1 °C 30.13 in /  1020.2 hPa SSW 2.3 mph /  3.7 km/h 1.6 mph /  2.6 km/h 78 % 0 in /  0 mm
09:35 47.9 °F /  8.8 °C 46.3 °F /  7.9 °C 30.12 in /  1019.9 hPa SSW 1 mph /  1.6 km/h 3 mph /  4.8 km/h 94 % 0 in /  0 mm
09:39 55.6 °F /  13.1 °C 47.4 °F /  8.6 °C 30.13 in /  1020.2 hPa SSW 4 mph /  6.4 km/h 3.5 mph /  5.6 km/h 74 % 0 in /  0 mm
09:40 48.7 °F /  9.3 °C 47.1 °F /  8.4 °C 30.12 in /  1019.9 hPa SSW 2 mph /  3.2 km/h 3 mph /  4.8 km/h 94 % 0 in /  0 mm
09:44 55.1 °F /  12.8 °C 46.2 °F /  7.9 °C 30.13 in /  1020.2 hPa SSW 5.8 mph /  9.3 km/h 4.3 mph /  6.9 km/h 72 % 0 in /  0 mm
09:45 49 °F /  9.4 °C 46.5 °F /  8.1 °C 30.12 in /  1019.9 hPa Calm   1 mph /  1.6 km/h 91 % 0 in /  0 mm
09:49 54.5 °F /  12.5 °C 46 °F /  7.8 °C 30.13 in /  1020.2 hPa SSW 3.5 mph /  5.6 km/h 1.8 mph /  2.9 km/h 73 % 0 in /  0 mm
09:50 49.2 °F /  9.6 °C 46.7 °F /  8.2 °C 30.12 in /  1019.9 hPa Calm     91 % 0 in /  0 mm
09:54 54.3 °F /  12.4 °C 45.8 °F /  7.7 °C 30.13 in /  1020.2 hPa SSW 4.6 mph /  7.4 km/h 2.6 mph /  4.2 km/h 73 % 0 in /  0 mm
09:55 49.9 °F /  9.9 °C 47.4 °F /  8.6 °C 30.13 in /  1020.2 hPa SSW 1 mph /  1.6 km/h 3 mph /  4.8 km/h 91 % 0 in /  0 mm
09:59 54.1 °F /  12.3 °C 46 °F /  7.8 °C 30.13 in /  1020.2 hPa SSW 4.6 mph /  7.4 km/h 2.6 mph /  4.2 km/h 74 % 0 in /  0 mm
10:00 50.9 °F /  10.5 °C 48.1 °F /  8.9 °C 30.13 in /  1020.2 hPa SSW 1 mph /  1.6 km/h 3 mph /  4.8 km/h 90 % 0 in /  0 mm
10:04 54 °F /  12.2 °C 45.9 °F /  7.7 °C 30.13 in /  1020.2 hPa SSW 4 mph /  6.4 km/h 1.9 mph /  3.1 km/h 74 % 0 in /  0 mm
10:05 51.5 °F /  10.8 °C 48.1 °F /  8.9 °C 30.13 in /  1020.2 hPa SSW 1 mph /  1.6 km/h 3 mph /  4.8 km/h 88 % 0 in /  0 mm
10:09 54.4 °F /  12.4 °C 45.2 °F /  7.3 °C 30.13 in /  1020.2 hPa SSW 3.5 mph /  5.6 km/h 0.7 mph /  1.1 km/h 71 % 0 in /  0 mm
10:10 52.2 °F /  11.2 °C 48.1 °F /  8.9 °C 30.13 in /  1020.2 hPa SSW 1 mph /  1.6 km/h 4 mph /  6.4 km/h 86 % 0 in /  0 mm
10:14 54.9 °F /  12.7 °C 45.3 °F /  7.4 °C 30.13 in /  1020.2 hPa SSW 7 mph /  11.3 km/h 4.7 mph /  7.6 km/h 70 % 0 in /  0 mm
10:15 52.8 °F /  11.6 °C 48.4 °F /  9.1 °C 30.13 in /  1020.2 hPa Calm   3 mph /  4.8 km/h 85 % 0 in /  0 mm
10:19 55 °F /  12.8 °C 45 °F /  7.2 °C 30.13 in /  1020.2 hPa SSW 3.5 mph /  5.6 km/h 2 mph /  3.2 km/h 69 % 0 in /  0 mm
10:20 53.3 °F /  11.8 °C 48.3 °F /  9.1 °C 30.13 in /  1020.2 hPa Calm   2 mph /  3.2 km/h 83 % 0 in /  0 mm
10:24 55.3 °F /  12.9 °C 44.9 °F /  7.2 °C 30.12 in /  1019.9 hPa SSW 2.3 mph /  3.7 km/h 1.2 mph /  1.9 km/h 68 % 0 in /  0 mm
10:25 53.9 °F /  12.2 °C 47.9 °F /  8.8 °C 30.13 in /  1020.2 hPa SSW 1 mph /  1.6 km/h 2 mph /  3.2 km/h 80 % 0 in /  0 mm
10:29 56.3 °F /  13.5 °C 45.9 °F /  7.7 °C 30.12 in /  1019.9 hPa SSW 4 mph /  6.4 km/h 2.2 mph /  3.5 km/h 68 % 0 in /  0 mm
10:30 54.3 °F /  12.4 °C 47.2 °F /  8.4 °C 30.13 in /  1020.2 hPa SSW 1 mph /  1.6 km/h 4 mph /  6.4 km/h 77 % 0 in /  0 mm
10:34 57.4 °F /  14.1 °C 46.1 °F /  7.8 °C 30.12 in /  1019.9 hPa SSW 6.9 mph /  11.1 km/h 3.4 mph /  5.5 km/h 66 % 0 in /  0 mm
10:35 54.6 °F /  12.6 °C 47.5 °F /  8.6 °C 30.13 in /  1020.2 hPa Calm   3 mph /  4.8 km/h 77 % 0 in /  0 mm
10:39 57.5 °F /  14.2 °C 46.6 °F /  8.1 °C 30.12 in /  1019.9 hPa SSW 2.3 mph /  3.7 km/h 1.2 mph /  1.9 km/h 67 % 0 in /  0 mm
10:40 55.5 °F /  13.1 °C 47.7 °F /  8.7 °C 30.13 in /  1020.2 hPa SSW 3 mph /  4.8 km/h 6 mph /  9.7 km/h 75 % 0 in /  0 mm
10:44 57.1 °F /  13.9 °C 44.6 °F /  7 °C 30.12 in /  1019.9 hPa SSW 4.6 mph /  7.4 km/h 1.9 mph /  3.1 km/h 63 % 0 in /  0 mm
10:45 55.6 °F /  13.1 °C 46.7 °F /  8.2 °C 30.13 in /  1020.2 hPa SSW 5 mph /  8 km/h 6 mph /  9.7 km/h 72 % 0 in /  0 mm
10:49 56.8 °F /  13.8 °C 45.2 °F /  7.3 °C 30.12 in /  1019.9 hPa SSW 4.6 mph /  7.4 km/h 4.3 mph /  6.9 km/h 65 % 0 in /  0 mm
10:50 54.8 °F /  12.7 °C 46.3 °F /  7.9 °C 30.13 in /  1020.2 hPa SSW 3 mph /  4.8 km/h 6 mph /  9.7 km/h 73 % 0 in /  0 mm
10:54 57 °F /  13.9 °C 44.5 °F /  6.9 °C 30.12 in /  1019.9 hPa SSW 2.3 mph /  3.7 km/h 1.1 mph /  1.8 km/h 63 % 0 in /  0 mm
10:55 54.4 °F /  12.4 °C 46.3 °F /  7.9 °C 30.14 in /  1020.5 hPa SSW 3 mph /  4.8 km/h 4 mph /  6.4 km/h 74 % 0 in /  0 mm
10:59 57.6 °F /  14.2 °C 44.7 °F /  7.1 °C 30.12 in /  1019.9 hPa SSW 2.3 mph /  3.7 km/h 0.3 mph /  0.5 km/h 62 % 0 in /  0 mm
11:00 54.2 °F /  12.3 °C 46.1 °F /  7.8 °C 30.13 in /  1020.2 hPa SSW 3 mph /  4.8 km/h 6 mph /  9.7 km/h 74 % 0 in /  0 mm
11:04 58.3 °F /  14.6 °C 44.9 °F /  7.2 °C 30.12 in /  1019.9 hPa SSW 4.6 mph /  7.4 km/h 2.8 mph /  4.5 km/h 61 % 0 in /  0 mm
11:05 54 °F /  12.2 °C 45.9 °F /  7.7 °C 30.13 in /  1020.2 hPa SSW 3 mph /  4.8 km/h 5 mph /  8 km/h 74 % 0 in /  0 mm
11:09 58.6 °F /  14.8 °C 45.2 °F /  7.3 °C 30.12 in /  1019.9 hPa SSW 3.5 mph /  5.6 km/h 3.1 mph /  5 km/h 61 % 0 in /  0 mm
11:14 58.6 °F /  14.8 °C 45.2 °F /  7.3 °C 30.12 in /  1019.9 hPa SSW 3.5 mph /  5.6 km/h 2.5 mph /  4 km/h 61 % 0 in /  0 mm
11:19 58 °F /  14.4 °C 44.2 °F /  6.8 °C 30.12 in /  1019.9 hPa SSW 10 mph /  16.1 km/h 5.6 mph /  9 km/h 60 % 0 in /  0 mm
11:24 57.3 °F /  14.1 °C 44 °F /  6.7 °C 30.12 in /  1019.9 hPa SSW 6.9 mph /  11.1 km/h 1.6 mph /  2.6 km/h 61 % 0 in /  0 mm
11:29 57.9 °F /  14.4 °C 45 °F /  7.2 °C 30.11 in /  1019.5 hPa SSW 3.5 mph /  5.6 km/h 2.7 mph /  4.3 km/h 62 % 0 in /  0 mm
11:34 58.6 °F /  14.8 °C 44.3 °F /  6.8 °C 30.11 in /  1019.5 hPa SSW 3.5 mph /  5.6 km/h 2.5 mph /  4 km/h 59 % 0 in /  0 mm
11:39 58.9 °F /  14.9 °C 45.9 °F /  7.7 °C 30.11 in /  1019.5 hPa SSW 8.1 mph /  13 km/h 3.6 mph /  5.8 km/h 62 % 0 in /  0 mm
11:44 58.4 °F /  14.7 °C 44.1 °F /  6.7 °C 30.11 in /  1019.5 hPa SW 8.1 mph /  13 km/h 4.2 mph /  6.8 km/h 59 % 0 in /  0 mm
11:49 58.4 °F /  14.7 °C 43.7 °F /  6.5 °C 30.11 in /  1019.5 hPa SW 6.9 mph /  11.1 km/h 2.7 mph /  4.3 km/h 58 % 0 in /  0 mm
11:54 58.8 °F /  14.9 °C 44 °F /  6.7 °C 30.11 in /  1019.5 hPa SW 6.9 mph /  11.1 km/h 4.6 mph /  7.4 km/h 58 % 0 in /  0 mm
11:59 59.4 °F /  15.2 °C 45.1 °F /  7.3 °C 30.11 in /  1019.5 hPa SW 5 mph /  8 km/h 4.2 mph /  6.8 km/h 59 % 0 in /  0 mm
12:04 60.2 °F /  15.7 °C 44.9 °F /  7.2 °C 30.11 in /  1019.5 hPa WSW 6.9 mph /  11.1 km/h 5.2 mph /  8.4 km/h 57 % 0 in /  0 mm
12:09 60.3 °F /  15.7 °C 44.5 °F /  6.9 °C 30.10 in /  1019.2 hPa WSW 5.8 mph /  9.3 km/h 4.1 mph /  6.6 km/h 56 % 0 in /  0 mm
12:14 60.6 °F /  15.9 °C 44.8 °F /  7.1 °C 30.10 in /  1019.2 hPa WSW 6 mph /  9.7 km/h 6.8 mph /  10.9 km/h 56 % 0 in /  0 mm
12:19 60.2 °F /  15.7 °C 44.9 °F /  7.2 °C 30.10 in /  1019.2 hPa WSW 5.8 mph /  9.3 km/h 2.7 mph /  4.3 km/h 57 % 0 in /  0 mm
12:24 60 °F /  15.6 °C 43.8 °F /  6.6 °C 30.10 in /  1019.2 hPa SW 5.8 mph /  9.3 km/h 3 mph /  4.8 km/h 55 % 0 in /  0 mm
12:29 60.6 °F /  15.9 °C 44.3 °F /  6.8 °C 30.09 in /  1018.8 hPa SW 3.5 mph /  5.6 km/h 0.9 mph /  1.4 km/h 55 % 0 in /  0 mm
12:34 61 °F /  16.1 °C 44.2 °F /  6.8 °C 30.09 in /  1018.8 hPa WSW 4 mph /  6.4 km/h 2.3 mph /  3.7 km/h 54 % 0 in /  0 mm
12:39 61 °F /  16.1 °C 44.7 °F /  7.1 °C 30.09 in /  1018.8 hPa WSW 4.6 mph /  7.4 km/h 2.3 mph /  3.7 km/h 55 % 0 in /  0 mm
12:44 61.5 °F /  16.4 °C 44.2 °F /  6.8 °C 30.09 in /  1018.8 hPa WSW 2.3 mph /  3.7 km/h 1.9 mph /  3.1 km/h 53 % 0 in /  0 mm
12:49 61.7 °F /  16.5 °C 44.9 °F /  7.2 °C 30.09 in /  1018.8 hPa WSW 5 mph /  8 km/h 2.8 mph /  4.5 km/h 54 % 0 in /  0 mm
12:54 61.6 °F /  16.4 °C 45.3 °F /  7.4 °C 30.08 in /  1018.5 hPa SSW 9.2 mph /  14.8 km/h 6.7 mph /  10.8 km/h 55 % 0 in /  0 mm
12:59 60.5 °F /  15.8 °C 44.2 °F /  6.8 °C 30.08 in /  1018.5 hPa SSW 8.1 mph /  13 km/h 4.2 mph /  6.8 km/h 55 % 0 in /  0 mm
13:04 60.1 °F /  15.6 °C 44.8 °F /  7.1 °C 30.08 in /  1018.5 hPa SSW 9.2 mph /  14.8 km/h 7.3 mph /  11.7 km/h 57 % 0 in /  0 mm
13:09 60.2 °F /  15.7 °C 44.4 °F /  6.9 °C 30.08 in /  1018.5 hPa SSW 4 mph /  6.4 km/h 4.4 mph /  7.1 km/h 56 % 0 in /  0 mm
13:14 60.9 °F /  16.1 °C 45.6 °F /  7.6 °C 30.07 in /  1018.2 hPa SSW 6.9 mph /  11.1 km/h 5 mph /  8 km/h 57 % 0 in /  0 mm
14:04 63.1 °F /  17.3 °C 44.7 °F /  7.1 °C 30.05 in /  1017.5 hPa South 8.1 mph /  13 km/h 5.6 mph /  9 km/h 51 % 0 in /  0 mm
14:09 62.9 °F /  17.2 °C 45.5 °F /  7.5 °C 30.05 in /  1017.5 hPa SSE 4.6 mph /  7.4 km/h 4.4 mph /  7.1 km/h 53 % 0 in /  0 mm
14:14 63.7 °F /  17.6 °C 45.2 °F /  7.3 °C 30.05 in /  1017.5 hPa SSE 5.8 mph /  9.3 km/h 4.1 mph /  6.6 km/h 51 % 0 in /  0 mm
14:19 64.1 °F /  17.8 °C 45.1 °F /  7.3 °C 30.05 in /  1017.5 hPa SSE 6 mph /  9.7 km/h 5.8 mph /  9.3 km/h 50 % 0 in /  0 mm
14:24 63.6 °F /  17.6 °C 44.1 °F /  6.7 °C 30.05 in /  1017.5 hPa SSE 6.9 mph /  11.1 km/h 4.3 mph /  6.9 km/h 49 % 0 in /  0 mm
14:29 63.4 °F /  17.4 °C 44.9 °F /  7.2 °C 30.04 in /  1017.2 hPa SSE 7 mph /  11.3 km/h 6.1 mph /  9.8 km/h 51 % 0 in /  0 mm
14:34 63.2 °F /  17.3 °C 44.8 °F /  7.1 °C 30.04 in /  1017.2 hPa SSE 5.8 mph /  9.3 km/h 2.2 mph /  3.5 km/h 51 % 0 in /  0 mm
14:39 63.1 °F /  17.3 °C 44.7 °F /  7.1 °C 30.04 in /  1017.2 hPa SSE 8.1 mph /  13 km/h 7 mph /  11.3 km/h 51 % 0 in /  0 mm
14:44 63.6 °F /  17.6 °C 45.1 °F /  7.3 °C 30.04 in /  1017.2 hPa SSE 8.1 mph /  13 km/h 1.9 mph /  3.1 km/h 51 % 0 in /  0 mm
14:49 63.8 °F /  17.7 °C 44.8 °F /  7.1 °C 30.04 in /  1017.2 hPa SSE 9.2 mph /  14.8 km/h 5.1 mph /  8.2 km/h 50 % 0 in /  0 mm
14:52 63.9 °F /  17.7 °C 44.4 °F /  6.9 °C 30.04 in /  1017.2 hPa SSE 4.6 mph /  7.4 km/h 2.6 mph /  4.2 km/h 49 % 0 in /  0 mm
Ararat Weather
Compliments of Weather Underground - 2.25 mb
Click here to send mail.


ABOUT

Live weather data from Ararat, Victoria, Australia, 3377
Data uploaded from Cumulus every 5 minutes to Weather Underground.
This site then downloads the raw data for formatting and display.
Metric and imperial data can be displayed. Graphs and historical data available.
Includes Sun and Moon times and rain image live from BOM.

Check out Ararat Weather on Facebook, Twitter and Google +

Help support ongoing costs by checking out the ads





Follow @AraratWeather